Terminal Aerodrome Forecast
Issued by NWS

Home | Current Version | Previous Version | Text Only | Print | Product List | Glossary On
Versions: 1 2 3 4 5 6 7 8 9 10 11 12 13 14 15 16 17 18 19 20 21 22 23 24 25 26 27 28 29 30 31 32 33 34
000
FTUS41 KBOX 122327
TAFBAF
TAF
KBAF 122327Z 1300/1324 17009KT P6SM OVC100
     FM131000 27005KT P6SM BKN040
     FM131400 31015G29KT P6SM BKN080
     FM132000 31018G35KT P6SM SCT035
     FM132200 31018G37KT P6SM SCT250=

USA.gov is the U.S. government's official web portal to all federal, state and local government web resources and services.